If you wish to contribute or participate in the discussions about articles you are invited to join SKYbrary as a registered user

 Actions

Annecy-Haute-Savoie-Mont Blanc Airport

From SKYbrary Wiki

LFLP
Airport
ICAO: LFLP – IATA: NCY
Summary
Name Annecy-Haute-Savoie-Mont Blanc Airport
Region Europe
Territory France FR.gif
Location , Rhone-Alpes
Serving Annecy
Elevation 463.601 m
1,521 ft
1,521 ft463.601 m
Type medium airport
Coordinates 45° 55' 45.2388", 6° 5' 55.5504"
Runways
Designator Length Width Surface ROPS
4/22 1630 m5,347.769 ft 30 m98.425 ft ASP yes/yes


METAR
Observation LFLP 250030Z AUTO 35011KT 9999 OVC021 00/M05 Q1011
Station ANNECY/MEYTHET
Date/Time 25 February 2018 00:30:00
Wind direction 350°
Wind speed 11 kts
Lowest cloud amount overcast
Temperature 0°C
Dew point
Humidity 68%
QNH 1011 hPa
Weather condition n/a